Wolcott, Connecticut
Current Conditions -  °F | °C
As of 8:43 PM on Wednesday 26 Nov 2014 (Local Time) from KMMK Reporting Station
Light Snow Light Snow  
Wind Chill: 27°   Ceiling: 1400
Heat Index: 35°   Visibility: 2.5mi
Dew Point: 31°   Wind: 12mph
Humidity: 85%   Direction: 350°N
Pressure: 29.74"   Gusts: 29mph
Location:  41.6°N, 72.98°W
Report Text: KMMK 270143Z AUTO 35010G25KT 2 1/2SM -SN BR BKN014 OVC020 02/M01 A2974 RMK AO2 PK WND 02026/0127 RAB03E04B32E42SNE32B42 P0004 T00171006 TSNO
Loading
Personal Weather Stations






























Interactive Weather Map New forecast layout! Learn more

10-Day Weather Forecast

Advertisements
Track Severe Weather on mobile